createdAt,value
2018-07-02T00:03:30.889Z,19.60
2018-07-02T00:06:10.681Z,19.60
2018-07-02T00:08:38.966Z,19.60
2018-07-02T00:11:07.236Z,19.50
2018-07-02T00:13:35.516Z,19.50
2018-07-02T00:16:03.816Z,19.50
2018-07-02T00:18:32.117Z,19.40
2018-07-02T00:23:28.498Z,19.50
2018-07-02T00:25:56.807Z,19.60
2018-07-02T00:28:25.144Z,19.60
2018-07-02T00:30:54.462Z,19.50
2018-07-02T00:33:22.749Z,19.60
2018-07-02T00:35:50.994Z,19.60
2018-07-02T00:38:19.679Z,19.60
2018-07-02T00:40:48.581Z,19.60
2018-07-02T00:43:16.931Z,19.50
2018-07-02T00:45:45.211Z,19.50
2018-07-02T00:48:13.530Z,19.60
2018-07-02T00:50:41.849Z,19.50
2018-07-02T00:53:10.260Z,19.40
2018-07-02T00:55:38.595Z,19.40
2018-07-02T00:58:06.880Z,19.50
2018-07-02T01:00:35.188Z,19.50
2018-07-02T01:03:03.496Z,19.40
2018-07-02T01:05:31.741Z,19.40
2018-07-02T01:07:59.982Z,19.40
2018-07-02T01:10:28.270Z,19.30
2018-07-02T01:12:56.550Z,19.30
2018-07-02T01:15:24.828Z,19.20
2018-07-02T01:17:53.114Z,19.20
2018-07-02T01:20:21.397Z,19.00
2018-07-02T01:22:49.691Z,19.00
2018-07-02T01:25:18.007Z,18.90
2018-07-02T01:30:14.311Z,18.90
2018-07-02T01:32:42.549Z,18.70
2018-07-02T01:35:10.855Z,18.70
2018-07-02T01:37:39.149Z,18.50
2018-07-02T01:40:07.439Z,18.50
2018-07-02T01:42:35.674Z,18.50
2018-07-02T01:45:03.980Z,18.60
2018-07-02T01:47:32.331Z,18.60
2018-07-02T01:50:00.712Z,18.60
2018-07-02T01:52:29.001Z,18.50
2018-07-02T01:54:57.472Z,18.50
2018-07-02T01:57:25.733Z,18.50
2018-07-02T01:59:54.121Z,18.40
2018-07-02T02:02:22.432Z,18.30
2018-07-02T02:04:50.728Z,18.30
2018-07-02T02:07:18.992Z,18.20
2018-07-02T02:09:47.272Z,18.20
2018-07-02T02:12:15.504Z,18.10
2018-07-02T02:14:43.802Z,18.00
2018-07-02T02:17:12.093Z,18.00
2018-07-02T02:19:40.361Z,17.90
2018-07-02T02:22:08.617Z,17.80
2018-07-02T02:24:36.866Z,17.80
2018-07-02T02:27:05.331Z,17.80
2018-07-02T02:32:01.616Z,17.90
2018-07-02T02:34:29.943Z,17.90
2018-07-02T02:36:58.259Z,17.80
2018-07-02T02:39:26.543Z,17.80
2018-07-02T02:41:54.820Z,17.70
2018-07-02T02:44:23.144Z,17.70
2018-07-02T02:46:51.484Z,17.60
2018-07-02T02:49:19.791Z,17.50
2018-07-02T02:51:48.115Z,17.40
2018-07-02T02:54:16.390Z,17.30
2018-07-02T02:56:44.688Z,17.20
2018-07-02T02:59:13.026Z,17.20
2018-07-02T03:01:41.345Z,17.20
2018-07-02T03:04:09.664Z,17.20
2018-07-02T03:06:37.987Z,17.10
2018-07-02T03:09:07.680Z,17.00
2018-07-02T03:11:35.948Z,16.90
2018-07-02T03:14:04.969Z,16.90
2018-07-02T03:16:33.327Z,16.80
2018-07-02T03:19:01.599Z,16.70
2018-07-02T03:21:29.877Z,16.70
2018-07-02T03:23:58.159Z,16.70
2018-07-02T03:26:26.480Z,16.70
2018-07-02T03:28:55.725Z,16.60
2018-07-02T03:33:52.079Z,16.60
2018-07-02T03:36:20.393Z,16.60
2018-07-02T03:38:48.676Z,16.50
2018-07-02T03:41:16.954Z,16.50
2018-07-02T03:43:45.245Z,16.40
2018-07-02T03:46:13.579Z,16.50
2018-07-02T03:48:41.890Z,16.40
2018-07-02T03:51:10.198Z,16.40
2018-07-02T03:53:39.162Z,16.40
2018-07-02T03:56:07.411Z,16.40
2018-07-02T03:58:35.701Z,16.50
2018-07-02T04:01:04.006Z,16.50
2018-07-02T04:03:32.264Z,16.50
2018-07-02T04:06:00.610Z,16.50
2018-07-02T04:08:28.871Z,16.40
2018-07-02T04:10:57.173Z,16.40
2018-07-02T04:13:25.452Z,16.50
2018-07-02T04:15:54.578Z,16.70
2018-07-02T04:20:50.805Z,16.80
2018-07-02T04:23:19.076Z,16.80
2018-07-02T04:25:47.370Z,16.90
2018-07-02T04:28:15.611Z,17.00
2018-07-02T04:30:43.864Z,17.00
2018-07-02T04:33:12.162Z,16.90
2018-07-02T04:35:40.442Z,17.00
2018-07-02T04:38:08.677Z,17.10
2018-07-02T04:40:36.947Z,17.20
2018-07-02T04:43:05.284Z,17.30
2018-07-02T04:45:33.571Z,17.20
2018-07-02T04:48:01.931Z,17.20
2018-07-02T04:50:30.107Z,17.30
2018-07-02T04:52:58.359Z,17.40
2018-07-02T04:55:26.614Z,17.40
2018-07-02T04:57:54.922Z,17.50
2018-07-02T05:00:23.209Z,17.60
2018-07-02T05:02:51.491Z,17.50
2018-07-02T05:05:19.747Z,17.50
2018-07-02T05:07:48.193Z,17.60
2018-07-02T05:12:44.591Z,17.60
2018-07-02T05:15:12.951Z,17.70
2018-07-02T05:17:41.238Z,17.80
2018-07-02T05:20:09.575Z,17.90
2018-07-02T05:25:05.872Z,18.00
2018-07-02T05:27:34.131Z,18.00
2018-07-02T05:30:02.392Z,18.10
2018-07-02T05:32:30.694Z,18.20
2018-07-02T05:34:59.008Z,18.30
2018-07-02T05:37:27.317Z,18.50
2018-07-02T05:39:55.637Z,18.50
2018-07-02T05:42:23.895Z,18.50
2018-07-02T05:44:52.184Z,18.60
2018-07-02T05:47:20.461Z,18.60
2018-07-02T05:49:48.715Z,18.80
2018-07-02T05:52:17.021Z,18.80
2018-07-02T05:54:45.299Z,18.90
2018-07-02T05:57:13.567Z,19.10
2018-07-02T05:59:41.843Z,19.20
2018-07-02T06:02:10.234Z,19.20
2018-07-02T06:04:38.491Z,19.30
2018-07-02T06:07:06.777Z,19.40
2018-07-02T06:09:35.069Z,19.50
2018-07-02T06:12:03.330Z,19.50
2018-07-02T06:14:31.610Z,19.60
2018-07-02T06:16:59.915Z,19.80
2018-07-02T06:19:28.291Z,19.80
2018-07-02T06:21:56.532Z,19.90
2018-07-02T06:24:24.788Z,20.00
2018-07-02T06:26:53.028Z,20.10
2018-07-02T06:31:49.391Z,20.40
2018-07-02T06:34:17.661Z,20.50
2018-07-02T06:36:45.946Z,20.60
2018-07-02T06:39:14.242Z,20.70
2018-07-02T06:41:42.536Z,20.90
2018-07-02T06:44:11.526Z,21.10
2018-07-02T06:46:39.868Z,21.40
2018-07-02T06:49:08.142Z,21.70
2018-07-02T06:51:36.535Z,22.30
2018-07-02T06:54:04.857Z,22.60
2018-07-02T06:56:33.103Z,22.90
2018-07-02T06:59:01.427Z,22.70
2018-07-02T07:06:25.961Z,23.40
2018-07-02T07:08:54.254Z,24.10
2018-07-02T07:11:22.468Z,24.60
2018-07-02T07:13:51.185Z,24.90
2018-07-02T07:16:19.463Z,25.40
2018-07-02T07:18:47.712Z,25.70
2018-07-02T07:21:16.020Z,25.60
2018-07-02T07:26:12.249Z,26.40
2018-07-02T07:28:40.518Z,26.60
2018-07-02T07:31:08.882Z,27.10
2018-07-02T07:33:37.061Z,27.90
2018-07-02T07:36:05.390Z,27.80
2018-07-02T07:38:33.651Z,27.60
2018-07-02T07:41:02.562Z,27.90
2018-07-02T07:43:30.852Z,28.10
2018-07-02T07:45:59.321Z,28.30
2018-07-02T07:48:27.641Z,28.40
2018-07-02T07:50:55.950Z,28.30
2018-07-02T07:55:52.486Z,28.70
2018-07-02T07:58:20.736Z,29.80
2018-07-02T08:00:49.028Z,29.90
2018-07-02T08:03:17.316Z,29.90
2018-07-02T08:05:45.545Z,30.30
2018-07-02T08:08:13.823Z,30.40
2018-07-02T08:10:42.081Z,30.10
2018-07-02T08:13:10.494Z,30.30
2018-07-02T08:15:38.755Z,30.70
2018-07-02T08:18:07.057Z,30.80
2018-07-02T08:20:35.285Z,31.10
2018-07-02T08:23:03.522Z,31.50
2018-07-02T08:25:32.409Z,32.30
2018-07-02T08:28:00.697Z,32.50
2018-07-02T08:32:57.069Z,32.10
2018-07-02T08:35:25.306Z,33.00
2018-07-02T08:37:53.656Z,33.00
2018-07-02T08:40:21.981Z,33.10
2018-07-02T08:42:50.220Z,34.30
2018-07-02T08:45:18.479Z,33.90
2018-07-02T08:47:46.765Z,33.80
2018-07-02T08:50:15.087Z,33.40
2018-07-02T08:52:43.411Z,33.40
2018-07-02T08:55:11.674Z,34.50
2018-07-02T08:57:39.971Z,34.10
2018-07-02T09:00:08.220Z,33.90
2018-07-02T09:02:36.488Z,34.40
2018-07-02T09:05:04.802Z,34.00
2018-07-02T09:07:33.107Z,34.40
2018-07-02T09:12:30.130Z,36.50
2018-07-02T09:14:58.230Z,35.00
2018-07-02T09:17:26.552Z,34.70
2018-07-02T09:19:54.778Z,35.00
2018-07-02T09:22:23.057Z,35.40
2018-07-02T09:24:51.327Z,35.60
2018-07-02T09:27:19.581Z,35.10
2018-07-02T09:29:47.834Z,36.40
2018-07-02T09:32:16.133Z,37.10
2018-07-02T09:34:44.421Z,37.20
2018-07-02T09:37:12.692Z,37.20
2018-07-02T09:39:40.979Z,36.80
2018-07-02T09:42:09.258Z,36.50
2018-07-02T09:44:37.515Z,36.70
2018-07-02T09:47:05.829Z,36.80
2018-07-02T09:49:34.198Z,38.10
2018-07-02T09:52:02.428Z,38.60
2018-07-02T09:54:30.749Z,37.90
2018-07-02T09:56:59.045Z,37.70
2018-07-02T10:01:55.621Z,38.80
2018-07-02T10:04:23.925Z,38.30
2018-07-02T10:06:52.188Z,38.30
2018-07-02T10:09:20.505Z,38.80
2018-07-02T10:11:48.833Z,40.20
2018-07-02T10:14:17.141Z,40.90
2018-07-02T10:16:46.250Z,39.90
2018-07-02T10:19:15.235Z,39.60
2018-07-02T10:21:43.469Z,39.50
2018-07-02T10:24:11.753Z,39.60
2018-07-02T10:26:40.604Z,39.60
2018-07-02T10:29:08.896Z,39.50
2018-07-02T10:31:37.244Z,40.20
2018-07-02T10:34:05.530Z,39.90
2018-07-02T10:36:33.873Z,38.90
2018-07-02T10:39:02.651Z,39.50
2018-07-02T10:41:30.867Z,39.90
2018-07-02T10:43:59.126Z,40.70
2018-07-02T10:46:27.399Z,39.10
2018-07-02T10:48:55.707Z,38.60
2018-07-02T10:53:52.092Z,39.30
2018-07-02T10:56:20.372Z,39.40
2018-07-02T10:58:48.634Z,39.10
2018-07-02T11:01:16.985Z,39.30
2018-07-02T11:03:45.231Z,41.50
2018-07-02T11:06:13.527Z,42.70
2018-07-02T11:08:41.833Z,42.30
2018-07-02T11:11:10.134Z,41.40
2018-07-02T11:13:38.380Z,40.60
2018-07-02T11:16:06.677Z,40.30
2018-07-02T11:18:34.986Z,40.80
2018-07-02T11:21:03.296Z,41.30
2018-07-02T11:23:31.560Z,41.70
2018-07-02T11:25:59.905Z,42.40
2018-07-02T11:28:28.260Z,42.50
2018-07-02T11:30:56.495Z,42.90
2018-07-02T11:33:24.795Z,42.00
2018-07-02T11:35:53.056Z,41.60
2018-07-02T11:38:21.315Z,40.70
2018-07-02T11:40:49.582Z,40.70
2018-07-02T11:43:17.891Z,41.50
2018-07-02T11:45:46.174Z,41.10
2018-07-02T11:50:42.545Z,40.40
2018-07-02T11:53:10.822Z,41.10
2018-07-02T11:55:39.106Z,42.50
2018-07-02T11:58:07.444Z,43.60
2018-07-02T12:00:35.736Z,44.00
2018-07-02T12:03:03.978Z,42.20
2018-07-02T12:05:32.260Z,41.80
2018-07-02T12:08:00.551Z,41.40
2018-07-02T12:12:56.818Z,41.60
2018-07-02T12:15:25.138Z,41.60
2018-07-02T12:17:53.427Z,41.80
2018-07-02T12:20:21.708Z,42.00
2018-07-02T12:22:50.271Z,41.10
2018-07-02T12:25:18.616Z,41.30
2018-07-02T12:27:47.075Z,41.00
2018-07-02T12:32:43.395Z,40.10
2018-07-02T12:35:11.720Z,41.20
2018-07-02T12:37:43.102Z,41.20
2018-07-02T12:40:11.461Z,40.50
2018-07-02T12:42:39.865Z,40.30
2018-07-02T12:45:08.148Z,39.70
2018-07-02T12:47:36.400Z,39.60
2018-07-02T12:50:04.754Z,40.00
2018-07-02T12:52:33.072Z,40.50
2018-07-02T12:55:01.416Z,41.00
2018-07-02T12:57:29.740Z,40.90
2018-07-02T12:59:58.055Z,40.00
2018-07-02T13:02:26.376Z,38.90
2018-07-02T13:04:55.472Z,37.10
2018-07-02T13:07:23.851Z,35.90
2018-07-02T13:09:52.205Z,35.70
2018-07-02T13:12:20.549Z,35.10
2018-07-02T13:14:48.927Z,34.60
2018-07-02T13:17:17.271Z,34.90
2018-07-02T13:19:45.508Z,34.50
2018-07-02T13:22:13.739Z,34.10
2018-07-02T13:24:42.002Z,34.00
2018-07-02T13:27:10.306Z,33.70
2018-07-02T13:29:38.690Z,33.40
2018-07-02T13:32:07.205Z,33.10
2018-07-02T13:34:35.497Z,32.60
2018-07-02T13:37:03.806Z,32.80
2018-07-02T13:39:32.083Z,32.80
2018-07-02T13:44:28.436Z,33.00
2018-07-02T13:46:57.162Z,32.90
2018-07-02T13:49:25.599Z,32.50
2018-07-02T13:51:53.928Z,32.20
2018-07-02T13:54:22.320Z,32.10
2018-07-02T13:56:50.568Z,32.00
2018-07-02T13:59:18.856Z,32.10
2018-07-02T14:01:47.132Z,32.30
2018-07-02T14:04:15.492Z,32.40
2018-07-02T14:06:43.810Z,32.40
2018-07-02T14:09:12.798Z,32.50
2018-07-02T14:11:41.884Z,32.70
2018-07-02T14:14:10.154Z,32.60
2018-07-02T14:16:38.610Z,32.60
2018-07-02T14:19:07.896Z,32.70
2018-07-02T14:21:36.380Z,32.60
2018-07-02T14:24:06.208Z,32.50
2018-07-02T14:26:35.561Z,32.10
2018-07-02T14:29:03.896Z,32.10
2018-07-02T14:31:32.296Z,32.10
2018-07-02T14:34:00.583Z,32.10
2018-07-02T14:36:28.849Z,32.30
2018-07-02T14:38:57.194Z,32.40
2018-07-02T14:41:25.455Z,32.50
2018-07-02T14:43:53.817Z,32.40
2018-07-02T14:46:22.108Z,32.50
2018-07-02T14:48:50.516Z,32.50
2018-07-02T14:51:18.752Z,32.40
2018-07-02T14:56:15.051Z,32.30
2018-07-02T14:58:43.318Z,32.50
2018-07-02T15:01:11.605Z,32.70
2018-07-02T15:03:39.937Z,32.70
2018-07-02T15:06:08.215Z,32.70
2018-07-02T15:08:36.484Z,32.30
2018-07-02T15:11:04.778Z,32.50
2018-07-02T15:13:33.072Z,32.20
2018-07-02T15:16:01.342Z,32.00
2018-07-02T15:18:29.611Z,31.70
2018-07-02T15:20:57.862Z,31.70
2018-07-02T15:25:54.207Z,31.30
2018-07-02T15:30:50.558Z,31.10
2018-07-02T15:33:18.892Z,31.10
2018-07-02T15:35:47.229Z,31.20
2018-07-02T15:38:15.505Z,31.20
2018-07-02T15:40:43.926Z,31.30
2018-07-02T15:43:12.256Z,31.50
2018-07-02T15:45:40.571Z,31.50
2018-07-02T15:48:08.835Z,31.50
2018-07-02T15:50:37.469Z,31.60
2018-07-02T15:53:06.354Z,31.30
2018-07-02T15:55:34.660Z,31.30
2018-07-02T15:58:03.554Z,31.30
2018-07-02T16:00:32.152Z,31.10
2018-07-02T16:03:00.468Z,31.00
2018-07-02T16:05:28.740Z,30.90
2018-07-02T16:07:56.960Z,31.10
2018-07-02T16:10:25.346Z,30.90
2018-07-02T16:12:53.607Z,31.10
2018-07-02T16:15:21.833Z,31.00
2018-07-02T16:17:50.143Z,30.90
2018-07-02T16:20:19.198Z,30.90
2018-07-02T16:22:47.529Z,30.90
2018-07-02T16:25:15.804Z,30.90
2018-07-02T16:30:12.185Z,30.90
2018-07-02T16:32:40.471Z,31.00
2018-07-02T16:35:08.707Z,30.90
2018-07-02T16:37:36.968Z,30.70
2018-07-02T16:47:29.518Z,30.90
2018-07-02T16:49:57.795Z,30.90
2018-07-02T16:52:26.098Z,30.80
2018-07-02T16:54:55.451Z,30.50
2018-07-02T16:57:23.803Z,30.50
2018-07-02T16:59:52.067Z,30.60
2018-07-02T17:02:20.400Z,30.80
2018-07-02T17:04:48.649Z,30.70
2018-07-02T17:07:16.961Z,30.80
2018-07-02T17:09:45.166Z,30.80
2018-07-02T17:12:13.465Z,30.50
2018-07-02T17:14:41.748Z,30.50
2018-07-02T17:17:10.111Z,30.60
2018-07-02T17:19:38.461Z,30.60
2018-07-02T17:22:06.792Z,30.60
2018-07-02T17:24:35.120Z,30.50
2018-07-02T17:27:03.380Z,30.70
2018-07-02T17:29:31.692Z,30.70
2018-07-02T17:32:00.008Z,30.50
2018-07-02T17:34:28.281Z,30.30
2018-07-02T17:36:56.558Z,30.20
2018-07-02T17:39:24.843Z,30.00
2018-07-02T17:41:53.119Z,30.00
2018-07-02T17:44:21.375Z,30.00
2018-07-02T17:46:49.701Z,30.00
2018-07-02T17:49:17.935Z,30.10
2018-07-02T17:51:46.215Z,30.20
2018-07-02T17:54:14.451Z,30.20
2018-07-02T18:01:39.128Z,30.20
2018-07-02T18:04:07.656Z,30.20
2018-07-02T18:06:36.397Z,30.10
2018-07-02T18:09:08.167Z,30.10
2018-07-02T18:11:36.492Z,30.10
2018-07-02T18:14:04.879Z,30.00
2018-07-02T18:16:33.124Z,29.80
2018-07-02T18:19:01.451Z,29.60
2018-07-02T18:21:29.838Z,29.40
2018-07-02T18:23:58.306Z,29.00
2018-07-02T18:26:26.741Z,28.90
2018-07-02T18:28:55.100Z,28.90
2018-07-02T18:31:23.394Z,28.70
2018-07-02T18:33:51.689Z,28.80
2018-07-02T18:38:48.129Z,28.70
2018-07-02T18:41:16.422Z,28.60
2018-07-02T18:43:44.770Z,28.50
2018-07-02T18:46:13.079Z,28.50
2018-07-02T18:48:41.401Z,28.30
2018-07-02T18:51:10.070Z,28.20
2018-07-02T18:53:38.349Z,28.20
2018-07-02T18:56:06.698Z,28.10
2018-07-02T18:58:34.979Z,28.00
2018-07-02T19:01:03.333Z,28.00
2018-07-02T19:05:59.757Z,27.70
2018-07-02T19:08:28.099Z,27.70
2018-07-02T19:10:56.592Z,27.60
2018-07-02T19:13:24.902Z,27.30
2018-07-02T19:15:53.187Z,27.30
2018-07-02T19:18:21.472Z,27.10
2018-07-02T19:20:50.124Z,27.10
2018-07-02T19:23:19.275Z,27.00
2018-07-02T19:25:47.554Z,26.90
2018-07-02T19:28:15.924Z,26.70
2018-07-02T19:30:44.624Z,26.50
2018-07-02T19:33:13.459Z,26.50
2018-07-02T19:35:41.817Z,26.40
2018-07-02T19:38:10.078Z,26.30
2018-07-02T19:40:38.455Z,26.20
2018-07-02T19:43:07.192Z,26.00
2018-07-02T19:45:35.493Z,25.90
2018-07-02T19:48:03.925Z,25.90
2018-07-02T19:50:32.583Z,25.70
2018-07-02T19:53:01.241Z,25.60
2018-07-02T19:55:29.471Z,25.60
2018-07-02T19:57:57.811Z,25.60
2018-07-02T20:00:26.139Z,25.50
2018-07-02T20:02:54.516Z,25.40
2018-07-02T20:05:22.859Z,25.40
2018-07-02T20:07:51.159Z,25.40
2018-07-02T20:10:19.472Z,25.30
2018-07-02T20:12:47.811Z,25.30
2018-07-02T20:15:16.125Z,25.10
2018-07-02T20:17:44.437Z,25.10
2018-07-02T20:20:12.927Z,25.10
2018-07-02T20:22:41.250Z,25.10
2018-07-02T20:25:09.776Z,25.10
2018-07-02T20:27:38.484Z,25.10
2018-07-02T20:30:07.695Z,25.00
2018-07-02T20:32:36.130Z,25.00
2018-07-02T20:35:04.536Z,24.80
2018-07-02T20:37:32.831Z,24.70
2018-07-02T20:40:01.120Z,24.70
2018-07-02T20:42:29.419Z,24.40
2018-07-02T20:44:57.720Z,24.30
2018-07-02T20:49:54.170Z,24.30
2018-07-02T20:52:22.553Z,24.30
2018-07-02T20:54:50.799Z,24.20
2018-07-02T20:57:19.050Z,24.20
2018-07-02T20:59:47.385Z,24.10
2018-07-02T21:02:15.616Z,24.10
2018-07-02T21:04:43.933Z,24.10
2018-07-02T21:07:12.246Z,24.00
2018-07-02T21:09:40.534Z,24.00
2018-07-02T21:12:08.871Z,24.00
2018-07-02T21:14:37.277Z,23.90
2018-07-02T21:17:05.549Z,23.90
2018-07-02T21:19:33.878Z,23.80
2018-07-02T21:22:02.144Z,23.80
2018-07-02T21:24:30.554Z,23.80
2018-07-02T21:26:58.888Z,23.70
2018-07-02T21:29:27.150Z,23.60
2018-07-02T21:31:55.459Z,23.50
2018-07-02T21:34:23.733Z,23.50
2018-07-02T21:39:20.102Z,23.30
2018-07-02T21:41:48.376Z,23.30
2018-07-02T21:44:16.699Z,23.40
2018-07-02T21:46:44.984Z,23.40
2018-07-02T21:49:13.303Z,23.30
2018-07-02T21:51:41.581Z,23.30
2018-07-02T21:54:09.840Z,23.30
2018-07-02T21:56:38.087Z,23.20
2018-07-02T21:59:06.400Z,23.20
2018-07-02T22:01:34.654Z,23.10
2018-07-02T22:04:02.958Z,23.10
2018-07-02T22:06:31.197Z,23.00
2018-07-02T22:08:59.457Z,22.80
2018-07-02T22:11:27.750Z,22.70
2018-07-02T22:13:56.043Z,22.70
2018-07-02T22:16:24.333Z,22.70
2018-07-02T22:18:52.572Z,22.70
2018-07-02T22:21:20.831Z,22.60
2018-07-02T22:23:49.099Z,22.60
2018-07-02T22:26:17.382Z,22.50
2018-07-02T22:28:45.704Z,22.40
2018-07-02T22:33:42.002Z,22.30
2018-07-02T22:36:10.298Z,22.30
2018-07-02T22:38:38.573Z,22.20
2018-07-02T22:41:06.875Z,22.30
2018-07-02T22:46:03.191Z,22.20
2018-07-02T22:48:31.515Z,22.20
2018-07-02T22:50:59.806Z,22.20
2018-07-02T22:53:28.127Z,22.20
2018-07-02T22:55:59.741Z,22.20
2018-07-02T22:58:28.019Z,22.20
2018-07-02T23:00:56.685Z,22.20
2018-07-02T23:03:25.007Z,22.20
2018-07-02T23:05:53.301Z,22.10
2018-07-02T23:08:21.568Z,22.00
2018-07-02T23:10:49.895Z,22.00
2018-07-02T23:13:18.151Z,22.00
2018-07-02T23:15:46.651Z,22.00
2018-07-02T23:18:14.970Z,21.90
2018-07-02T23:20:43.255Z,21.90
2018-07-02T23:23:11.536Z,22.00
2018-07-02T23:25:39.866Z,22.00
2018-07-02T23:28:08.231Z,22.00
2018-07-02T23:30:36.450Z,22.00
2018-07-02T23:33:04.800Z,22.00
2018-07-02T23:35:33.035Z,21.90
2018-07-02T23:40:29.330Z,21.70
2018-07-02T23:42:57.540Z,21.60
2018-07-02T23:45:25.828Z,21.50
2018-07-02T23:47:54.071Z,21.50
2018-07-02T23:50:22.376Z,21.50
2018-07-02T23:52:50.666Z,21.40
2018-07-02T23:55:18.948Z,21.30
